Time;durP1;ratioP1;P1;durP2;ratioP2;P2;SDS_P1;SDS_P2;PMS_P1;PMS_P2;Temp;Humidity;BMP_temperature;BMP_pressure;BME280_temperature;BME280_humidity;BME280_pressure;Samples;Min_cycle;Max_cycle;Signal;HPM_P1;HPM_P2
2024/03/17 00:02:58;;;;;;;9.68;1.83;;;;;;;6.07;100.00;102104.22;6252853;28;20053;-75
2024/03/17 00:06:00;;;;;;;11.50;2.10;;;;;;;5.98;100.00;102107.81;6252944;28;20046;-74
2024/03/17 00:09:06;;;;;;;8.30;1.50;;;;;;;5.97;100.00;102103.47;6252672;28;20057;-74
2024/03/17 00:12:08;;;;;;;9.90;1.88;;;;;;;5.97;100.00;102103.47;6253785;28;20044;-75
2024/03/17 00:15:10;;;;;;;8.32;1.63;;;;;;;5.96;100.00;102106.13;6256692;28;20041;-75
2024/03/17 00:18:11;;;;;;;8.68;1.50;;;;;;;5.89;100.00;102107.03;6256751;28;20045;-75
2024/03/17 00:21:13;;;;;;;9.60;2.13;;;;;;;5.87;100.00;102106.19;6253207;28;20041;-75
2024/03/17 00:24:14;;;;;;;11.27;1.90;;;;;;;5.80;100.00;102101.03;6253594;28;20080;-75
2024/03/17 00:27:16;;;;;;;10.88;1.85;;;;;;;5.73;100.00;102096.78;6253305;28;20454;-75
2024/03/17 00:30:18;;;;;;;4.15;1.35;;;;;;;5.69;100.00;102094.22;6252830;28;20093;-75
2024/03/17 00:33:19;;;;;;;12.45;1.95;;;;;;;5.65;100.00;102101.22;6253582;28;20053;-75
2024/03/17 00:36:20;;;;;;;6.78;2.35;;;;;;;5.58;100.00;102103.00;6252958;28;20049;-75
2024/03/17 00:39:20;;;;;;;15.70;2.55;;;;;;;5.55;100.00;102100.44;6252951;28;20053;-75
2024/03/17 00:42:23;;;;;;;10.50;1.70;;;;;;;5.49;100.00;102102.25;6253056;28;20052;-75
2024/03/17 00:45:24;;;;;;;13.18;1.70;;;;;;;5.46;100.00;102097.94;6252770;28;20049;-75
2024/03/17 00:48:26;;;;;;;5.82;1.58;;;;;;;5.43;100.00;102100.56;6253146;28;20438;-75
2024/03/17 00:51:26;;;;;;;3.63;1.73;;;;;;;5.31;100.00;102103.28;6252286;28;20041;-75
2024/03/17 00:54:28;;;;;;;3.85;1.42;;;;;;;5.28;100.00;102098.13;6252891;28;20358;-75
2024/03/17 00:57:30;;;;;;;2.78;1.25;;;;;;;5.31;100.00;102092.88;6253014;28;20442;-75
2024/03/17 01:00:32;;;;;;;10.02;2.40;;;;;;;5.23;100.00;102090.34;6252405;28;20147;-75
2024/03/17 01:03:33;;;;;;;6.47;1.63;;;;;;;5.18;100.00;102092.16;6252415;28;20047;-75
2024/03/17 01:06:34;;;;;;;9.45;2.30;;;;;;;5.16;100.00;102095.63;6252202;28;20362;-75
2024/03/17 01:09:35;;;;;;;9.23;3.05;;;;;;;5.05;100.00;102090.53;6252077;28;20056;-75
2024/03/17 01:12:37;;;;;;;12.75;2.28;;;;;;;4.95;100.00;102097.56;6252386;28;20046;-75
2024/03/17 01:15:40;;;;;;;8.45;2.35;;;;;;;4.95;100.00;102097.56;6252288;28;20057;-75
2024/03/17 01:18:41;;;;;;;12.35;2.08;;;;;;;4.92;100.00;102089.75;6252188;28;20053;-75
2024/03/17 01:21:42;;;;;;;7.90;2.30;;;;;;;4.88;100.00;102090.66;6251531;28;20050;-75
2024/03/17 01:24:46;;;;;;;4.63;1.95;;;;;;;4.86;100.00;102088.94;6251864;28;20049;-75
2024/03/17 01:27:47;;;;;;;15.63;2.15;;;;;;;4.81;100.00;102087.25;6252231;28;20056;-75
2024/03/17 01:30:49;;;;;;;6.70;2.35;;;;;;;4.80;100.00;102085.50;6251057;28;20045;-74
2024/03/17 01:33:50;;;;;;;9.65;2.20;;;;;;;4.80;100.00;102087.25;6252046;28;20050;-75
2024/03/17 01:36:50;;;;;;;4.85;1.90;;;;;;;4.78;100.00;102082.06;6251686;28;20053;-75
2024/03/17 01:39:52;;;;;;;10.35;2.60;;;;;;;4.75;100.00;102078.59;6251493;28;20482;-75
2024/03/17 01:42:54;;;;;;;9.70;3.25;;;;;;;4.70;100.00;102085.59;6251725;28;20050;-75
2024/03/17 01:45:55;;;;;;;8.00;2.30;;;;;;;4.69;100.00;102071.72;6251301;28;20057;-75
2024/03/17 01:48:57;;;;;;;9.85;2.88;;;;;;;4.68;100.00;102079.53;6251448;28;20049;-75
2024/03/17 01:51:57;;;;;;;10.32;2.47;;;;;;;4.64;100.00;102080.44;6251103;28;20432;-75
2024/03/17 01:54:58;;;;;;;9.50;2.85;;;;;;;4.61;100.00;102081.31;6251421;28;20099;-75
2024/03/17 01:58:03;;;;;;;15.38;3.03;;;;;;;4.64;100.00;102081.31;6251411;28;20430;-75
2024/03/17 02:01:05;;;;;;;9.25;2.53;;;;;;;4.65;100.00;102079.56;6250789;28;20453;-75
2024/03/17 02:04:06;;;;;;;14.70;2.35;;;;;;;4.66;100.00;102078.69;6251149;28;20049;-76
2024/03/17 02:07:06;;;;;;;9.13;2.08;;;;;;;4.63;100.00;102083.91;6251087;28;20203;-75
2024/03/17 02:10:09;;;;;;;8.02;2.35;;;;;;;4.63;100.00;102070.88;6250653;28;20053;-75
2024/03/17 02:13:12;;;;;;;7.50;2.17;;;;;;;4.62;100.00;102074.38;6251299;28;20075;-75
2024/03/17 02:16:12;;;;;;;16.10;3.20;;;;;;;4.60;100.00;102081.34;6250903;28;20057;-75
2024/03/17 02:19:13;;;;;;;12.60;2.90;;;;;;;4.54;100.00;102083.13;6250352;28;20053;-75
2024/03/17 02:22:16;;;;;;;4.85;2.03;;;;;;;4.49;100.00;102084.84;6251121;28;20052;-75
2024/03/17 02:25:18;;;;;;;14.07;3.65;;;;;;;4.44;100.00;102072.75;6250567;28;20056;-75
2024/03/17 02:28:18;;;;;;;9.95;2.70;;;;;;;4.40;100.00;102071.91;6250974;28;20057;-76
2024/03/17 02:31:22;;;;;;;9.40;2.47;;;;;;;4.38;100.00;102068.47;6249972;28;20084;-76
2024/03/17 02:34:22;;;;;;;6.60;2.35;;;;;;;4.36;100.00;102078.03;6250557;28;20056;-76
2024/03/17 02:37:25;;;;;;;9.85;2.75;;;;;;;4.33;100.00;102075.44;6250385;28;20045;-76
2024/03/17 02:40:25;;;;;;;6.07;1.83;;;;;;;4.28;100.00;102078.06;6250230;28;20045;-76
2024/03/17 02:43:27;;;;;;;11.45;2.75;;;;;;;4.28;100.00;102078.06;6250714;28;20045;-75
2024/03/17 02:46:28;;;;;;;4.10;1.85;;;;;;;4.17;100.00;102079.84;6249719;28;20323;-75
2024/03/17 02:49:35;;;;;;;10.30;2.42;;;;;;;4.16;100.00;102072.06;6272446;22;20753;-75
2024/03/17 02:52:37;;;;;;;7.60;2.33;;;;;;;4.15;100.00;102068.59;6250761;28;20049;-76
2024/03/17 02:55:39;;;;;;;8.30;1.92;;;;;;;4.11;100.00;102063.44;6250290;28;20049;-76
2024/03/17 02:58:41;;;;;;;10.48;1.70;;;;;;;4.10;100.00;102066.91;6250697;28;20141;-75
2024/03/17 03:01:42;;;;;;;10.57;1.75;;;;;;;4.07;100.00;102071.22;6249875;28;20049;-76
2024/03/17 03:04:44;;;;;;;7.28;2.47;;;;;;;3.94;100.00;102060.91;6250120;28;20615;-76
2024/03/17 03:07:47;;;;;;;10.90;1.70;;;;;;;3.93;100.00;102065.25;6250561;28;20061;-76
2024/03/17 03:10:48;;;;;;;4.45;1.58;;;;;;;3.97;100.00;102071.28;6247526;28;20119;-75
2024/03/17 03:13:50;;;;;;;11.40;2.20;;;;;;;3.94;100.00;102068.69;6247923;28;20374;-76
2024/03/17 03:16:51;;;;;;;4.72;1.83;;;;;;;3.91;100.00;102064.41;6242130;28;20061;-76
2024/03/17 03:19:53;;;;;;;9.55;1.95;;;;;;;3.90;100.00;102067.84;6249893;28;20053;-76
2024/03/17 03:22:56;;;;;;;7.75;1.73;;;;;;;3.92;100.00;102068.72;6243627;28;20042;-75
2024/03/17 03:25:58;;;;;;;3.20;1.70;;;;;;;3.88;100.00;102071.34;6250106;28;20053;-76
2024/03/17 03:28:59;;;;;;;8.05;2.47;;;;;;;3.84;100.00;102067.88;6250195;28;20450;-75
2024/03/17 03:32:01;;;;;;;6.07;1.90;;;;;;;3.80;100.00;102071.38;6249675;28;20049;-76
2024/03/17 03:35:04;;;;;;;7.47;2.20;;;;;;;3.79;100.00;102064.44;6249619;28;20349;-76
2024/03/17 03:38:08;;;;;;;9.45;2.30;;;;;;;3.78;100.00;102063.56;6249896;28;20434;-76
2024/03/17 03:41:10;;;;;;;5.43;2.28;;;;;;;3.78;100.00;102070.50;6249761;28;20053;-76
2024/03/17 03:44:12;;;;;;;2.28;1.50;;;;;;;3.75;100.00;102067.91;6252410;28;20045;-76
2024/03/17 03:47:13;;;;;;;14.93;2.25;;;;;;;3.79;100.00;102061.84;6254315;28;20101;-75
2024/03/17 03:50:20;;;;;;;7.18;1.80;;;;;;;3.74;100.00;102055.78;6253989;28;20062;-76
2024/03/17 03:53:23;;;;;;;6.20;1.73;;;;;;;3.67;100.00;102059.28;6254576;28;20060;-76
2024/03/17 03:56:25;;;;;;;3.65;1.52;;;;;;;3.60;100.00;102065.38;6253869;28;20164;-76
2024/03/17 03:59:27;;;;;;;6.55;1.98;;;;;;;3.50;100.00;102070.63;6247806;28;20045;-76
2024/03/17 04:02:31;;;;;;;11.95;2.17;;;;;;;3.50;100.00;102061.97;6244805;28;20048;-76
2024/03/17 04:05:34;;;;;;;9.85;1.88;;;;;;;3.37;100.00;102071.50;6249129;28;20125;-76
2024/03/17 04:08:37;;;;;;;7.85;1.55;;;;;;;3.38;100.00;102074.97;6254096;28;20049;-76
2024/03/17 04:11:39;;;;;;;11.70;2.00;;;;;;;3.32;100.00;102068.06;6253486;28;20468;-76
2024/03/17 04:14:40;;;;;;;8.20;2.08;;;;;;;3.35;100.00;102073.22;6253492;28;20449;-76
2024/03/17 04:17:42;;;;;;;18.58;2.92;;;;;;;3.37;100.00;102070.66;6253581;28;20056;-76
2024/03/17 04:20:44;;;;;;;8.68;2.17;;;;;;;3.36;100.00;102076.69;6253303;28;20132;-76
2024/03/17 04:23:46;;;;;;;3.30;1.35;;;;;;;3.26;100.00;102073.25;6253804;28;20426;-76
2024/03/17 04:26:48;;;;;;;6.38;1.75;;;;;;;3.22;100.00;102077.56;6253533;28;20053;-76
2024/03/17 04:29:50;;;;;;;8.70;1.73;;;;;;;3.26;100.00;102087.09;6253024;28;20115;-76
2024/03/17 04:32:51;;;;;;;3.60;1.35;;;;;;;3.28;100.00;102080.19;6253644;28;20072;-76
2024/03/17 04:35:53;;;;;;;3.90;1.83;;;;;;;3.31;100.00;102082.75;6253158;28;20054;-76
2024/03/17 04:38:55;;;;;;;7.85;1.88;;;;;;;3.30;100.00;102085.38;6253620;28;20057;-76
2024/03/17 04:41:57;;;;;;;14.27;2.15;;;;;;;3.28;100.00;102087.13;6252447;28;20049;-76
2024/03/17 04:44:58;;;;;;;5.50;1.33;;;;;;;3.26;100.00;102087.09;6252753;28;20049;-76
2024/03/17 04:47:59;;;;;;;6.60;1.73;;;;;;;3.30;100.00;102085.38;6253147;28;20045;-76
2024/03/17 04:51:01;;;;;;;7.40;2.00;;;;;;;3.24;100.00;102088.84;6252341;28;20049;-76
2024/03/17 04:54:05;;;;;;;3.47;1.48;;;;;;;3.24;100.00;102096.63;6253008;28;20358;-76
2024/03/17 04:57:07;;;;;;;6.95;2.13;;;;;;;3.19;100.00;102092.31;6252074;28;20081;-76
2024/03/17 05:00:11;;;;;;;8.85;2.45;;;;;;;3.16;100.00;102090.59;6252568;28;20050;-76
2024/03/17 05:03:13;;;;;;;3.65;1.60;;;;;;;3.23;100.00;102096.66;6252658;28;20056;-76
2024/03/17 05:06:15;;;;;;;5.93;1.90;;;;;;;3.24;100.00;102101.84;6252532;28;20052;-76
2024/03/17 05:09:18;;;;;;;8.90;1.95;;;;;;;3.22;100.00;102100.94;6252017;28;20354;-76
2024/03/17 05:12:19;;;;;;;8.73;2.17;;;;;;;3.25;100.00;102100.97;6252705;28;20469;-76
2024/03/17 05:15:20;;;;;;;3.55;1.63;;;;;;;3.20;100.00;102099.25;6252345;28;20132;-76
2024/03/17 05:18:22;;;;;;;5.18;1.80;;;;;;;3.20;100.00;102107.91;6252403;28;20049;-76
2024/03/17 05:21:25;;;;;;;2.75;1.70;;;;;;;3.18;100.00;102111.34;6252201;28;20072;-76
2024/03/17 05:24:28;;;;;;;7.85;1.75;;;;;;;3.14;100.00;102113.09;6252110;28;20068;-76
2024/03/17 05:27:30;;;;;;;5.38;1.98;;;;;;;3.15;100.00;102119.16;6252435;28;20061;-76
2024/03/17 05:30:31;;;;;;;6.30;2.17;;;;;;;3.01;100.00;102111.38;6251477;28;20446;-76
2024/03/17 05:33:33;;;;;;;9.40;1.88;;;;;;;3.08;100.00;102113.09;6252192;28;20046;-76
2024/03/17 05:36:35;;;;;;;7.40;3.20;;;;;;;3.01;100.00;102116.56;6251717;28;20052;-76
2024/03/17 05:39:37;;;;;;;9.98;2.38;;;;;;;3.01;100.00;102117.44;6251616;28;20065;-75
2024/03/17 05:42:39;;;;;;;14.15;2.30;;;;;;;2.99;100.00;102115.69;6251775;28;20114;-76
2024/03/17 05:45:40;;;;;;;6.82;2.17;;;;;;;3.02;100.00;102120.91;6251619;28;20044;-76
2024/03/17 05:48:41;;;;;;;10.45;2.67;;;;;;;2.93;100.00;102126.09;6251494;28;20303;-75
2024/03/17 05:51:43;;;;;;;6.10;2.50;;;;;;;2.93;100.00;102123.50;6250980;28;20045;-75
2024/03/17 05:54:46;;;;;;;4.20;1.65;;;;;;;2.95;100.00;102122.63;6251536;28;20127;-75
2024/03/17 05:57:47;;;;;;;7.82;1.83;;;;;;;3.05;100.00;102128.69;6251330;28;20056;-76
2024/03/17 06:00:48;;;;;;;9.90;2.08;;;;;;;3.08;100.00;102130.41;6249256;28;20053;-75
2024/03/17 06:03:50;;;;;;;6.93;2.15;;;;;;;3.11;100.00;102133.88;6251103;28;20044;-75
2024/03/17 06:06:51;;;;;;;5.72;2.30;;;;;;;3.15;100.00;102138.22;6225934;28;20046;-76
2024/03/17 06:09:54;;;;;;;10.35;3.17;;;;;;;3.20;100.00;102133.88;6248969;28;20068;-76
2024/03/17 06:12:55;;;;;;;7.65;2.03;;;;;;;3.25;100.00;102136.47;6251408;28;20046;-76
2024/03/17 06:16:00;;;;;;;5.55;3.05;;;;;;;3.29;100.00;102130.41;6246755;28;20077;-75
2024/03/17 06:19:02;;;;;;;11.20;2.28;;;;;;;3.34;100.00;102127.81;6251190;28;20064;-75
2024/03/17 06:22:05;;;;;;;12.82;2.03;;;;;;;3.39;100.00;102120.88;6250453;28;20061;-75
2024/03/17 06:25:09;;;;;;;4.35;1.50;;;;;;;3.45;100.00;102121.72;6250732;28;20052;-75
2024/03/17 06:28:13;;;;;;;14.20;3.47;;;;;;;3.46;100.00;102118.25;6242091;28;20049;-75
2024/03/17 06:31:15;;;;;;;11.57;2.15;;;;;;;3.47;100.00;102124.31;6243707;28;20045;-75
2024/03/17 06:34:17;;;;;;;4.97;1.75;;;;;;;3.49;100.00;102117.38;6235291;28;20045;-78
2024/03/17 06:37:19;;;;;;;8.75;2.00;;;;;;;3.49;100.00;102123.44;6226028;28;20046;-75
2024/03/17 06:40:22;;;;;;;8.15;1.77;;;;;;;3.51;100.00;102119.13;6225994;28;20064;-77
2024/03/17 06:43:23;;;;;;;4.43;1.92;;;;;;;3.56;100.00;102125.16;6226102;28;20054;-75
2024/03/17 06:46:25;;;;;;;5.43;2.30;;;;;;;3.57;100.00;102123.44;6226162;28;20076;-76
2024/03/17 06:49:26;;;;;;;13.40;2.88;;;;;;;3.61;100.00;102125.16;6225521;28;20061;-75
2024/03/17 06:52:27;;;;;;;5.90;2.25;;;;;;;3.67;100.00;102125.13;6226377;28;20053;-77
2024/03/17 06:55:30;;;;;;;6.43;2.50;;;;;;;3.75;100.00;102125.97;6225820;28;20050;-77
2024/03/17 06:58:31;;;;;;;9.20;2.67;;;;;;;3.79;100.00;102119.91;6226166;28;20053;-77
2024/03/17 07:01:33;;;;;;;5.40;2.80;;;;;;;3.84;100.00;102117.28;6231537;28;20053;-75
2024/03/17 07:04:36;;;;;;;8.05;2.80;;;;;;;3.94;100.00;102128.50;6247580;28;20089;-75
2024/03/17 07:07:38;;;;;;;7.10;2.78;;;;;;;3.88;100.00;102123.34;6246983;28;20045;-76
2024/03/17 07:10:40;;;;;;;13.32;2.85;;;;;;;4.01;100.00;102120.69;6240316;28;20056;-76
2024/03/17 07:13:43;;;;;;;6.60;2.50;;;;;;;4.11;100.00;102124.13;6250259;28;20332;-76
2024/03/17 07:16:44;;;;;;;6.70;2.72;;;;;;;4.17;100.00;102110.22;6249886;28;20053;-75
2024/03/17 07:19:45;;;;;;;6.38;2.35;;;;;;;4.24;100.00;102115.38;6253286;28;20061;-77
2024/03/17 07:22:49;;;;;;;5.40;2.67;;;;;;;4.31;100.00;102109.28;6250740;28;20077;-78
2024/03/17 07:25:56;;;;;;;5.20;2.53;;;;;;;4.41;100.00;102104.88;6238383;28;20125;-78
2024/03/17 07:28:57;;;;;;;8.77;2.90;;;;;;;4.47;100.00;102110.03;6230141;28;20049;-77
2024/03/17 07:31:59;;;;;;;8.73;2.72;;;;;;;4.53;100.00;102103.94;6229980;28;20059;-77
2024/03/17 07:35:00;;;;;;;7.93;3.58;;;;;;;4.60;100.00;102118.66;6229879;28;20351;-78
2024/03/17 07:38:02;;;;;;;9.85;3.28;;;;;;;4.68;100.00;102124.69;6230352;28;20056;-76
2024/03/17 07:41:05;;;;;;;8.70;3.45;;;;;;;4.76;100.00;102130.66;6229723;28;20057;-77
2024/03/17 07:44:07;;;;;;;9.15;4.30;;;;;;;4.86;100.00;102128.00;6229843;28;20046;-77
2024/03/17 07:47:08;;;;;;;11.93;3.33;;;;;;;4.94;100.00;102134.03;6230039;28;20069;-77
2024/03/17 07:50:10;;;;;;;6.43;3.40;;;;;;;5.03;100.00;102126.13;6229371;28;20069;-77
2024/03/17 07:53:12;;;;;;;14.02;3.00;;;;;;;5.13;100.00;102132.13;6230111;28;20054;-77
2024/03/17 07:56:16;;;;;;;5.18;2.60;;;;;;;5.22;100.00;102127.72;6229549;28;20053;-76
2024/03/17 07:59:17;;;;;;;7.80;2.72;;;;;;;5.34;100.00;102124.13;6229345;28;20462;-76
2024/03/17 08:02:19;;;;;;;13.90;3.22;;;;;;;5.45;100.00;102127.50;6229635;28;20466;-76
2024/03/17 08:05:22;;;;;;;7.50;2.60;;;;;;;5.53;100.00;102122.19;6229411;28;20454;-76
2024/03/17 08:08:23;;;;;;;17.35;3.22;;;;;;;5.63;100.00;102123.81;6229843;28;20057;-76
2024/03/17 08:11:26;;;;;;;15.18;2.92;;;;;;;5.73;100.00;102124.59;6228997;28;20050;-76
2024/03/17 08:14:27;;;;;;;13.90;2.03;;;;;;;5.83;100.00;102119.25;6229451;28;20141;-76
2024/03/17 08:17:29;;;;;;;8.40;1.98;;;;;;;5.94;100.00;102118.28;6229286;28;20053;-76
2024/03/17 08:20:30;;;;;;;5.32;1.63;;;;;;;6.00;100.00;102124.31;6228918;28;20050;-75
2024/03/17 08:23:32;;;;;;;13.45;1.80;;;;;;;6.10;100.00;102122.47;6229078;28;20053;-76
2024/03/17 08:26:34;;;;;;;13.02;1.80;;;;;;;6.11;100.00;102124.19;6228801;28;20366;-75
2024/03/17 08:29:36;;;;;;;15.25;2.25;;;;;;;6.21;100.00;102123.16;6227804;28;20050;-75
2024/03/17 08:32:37;;;;;;;12.60;1.70;;;;;;;6.37;100.00;102129.06;6229269;28;20050;-75
2024/03/17 08:35:38;;;;;;;7.95;2.45;;;;;;;6.28;100.00;102124.81;6228763;28;20069;-76
2024/03/17 08:38:40;;;;;;;4.93;1.45;;;;;;;6.44;100.00;102127.22;6229176;28;20050;-76
2024/03/17 08:41:44;;;;;;;9.52;2.55;;;;;;;6.47;100.00;102122.81;6228559;28;20046;-77
2024/03/17 08:44:46;;;;;;;10.73;1.70;;;;;;;6.44;100.00;102120.25;6228675;28;20053;-76
2024/03/17 08:47:52;;;;;;;9.07;0.80;;;;;;;6.47;100.00;102112.38;6228506;28;20072;-76
2024/03/17 08:50:53;;;;;;;8.02;1.33;;;;;;;6.54;100.00;102110.53;6234787;28;20057;-75
2024/03/17 08:53:56;;;;;;;10.75;1.33;;;;;;;6.60;100.00;102110.44;6240107;28;20057;-75
2024/03/17 08:56:59;;;;;;;13.88;1.75;;;;;;;6.66;100.00;102102.50;6227908;28;20073;-75
2024/03/17 09:00:00;;;;;;;6.03;1.25;;;;;;;6.86;100.00;102100.47;6227725;28;20357;-75
2024/03/17 09:03:02;;;;;;;13.45;1.50;;;;;;;7.09;100.00;102101.84;6228225;28;20045;-76
2024/03/17 09:06:04;;;;;;;9.82;1.50;;;;;;;7.27;100.00;102098.03;6235539;28;20052;-76
2024/03/17 09:09:06;;;;;;;6.03;1.08;;;;;;;7.38;100.00;102094.31;6252661;28;20060;-76
2024/03/17 09:12:09;;;;;;;9.70;1.52;;;;;;;7.42;100.00;102102.97;6252635;28;20056;-76
2024/03/17 09:15:11;;;;;;;8.77;1.58;;;;;;;7.47;100.00;102110.75;6252221;28;20136;-76
2024/03/17 09:18:13;;;;;;;7.72;1.33;;;;;;;7.53;100.00;102111.47;6252626;28;20056;-76
2024/03/17 09:21:16;;;;;;;6.10;1.05;;;;;;;7.63;100.00;102115.66;6251914;28;20454;-76
2024/03/17 09:24:17;;;;;;;7.97;1.20;;;;;;;7.79;100.00;102118.84;6234971;28;20447;-76
2024/03/17 09:27:22;;;;;;;9.95;1.35;;;;;;;7.95;100.00;102121.13;6239578;28;20053;-76
2024/03/17 09:30:23;;;;;;;3.95;1.50;;;;;;;8.06;100.00;102114.78;6252014;28;20056;-76
2024/03/17 09:33:26;;;;;;;8.85;1.20;;;;;;;8.20;100.00;102117.13;6252618;28;20358;-76
2024/03/17 09:36:27;;;;;;;15.07;1.30;;;;;;;8.33;100.00;102115.97;6251570;28;20046;-76
2024/03/17 09:39:28;;;;;;;14.98;2.08;;;;;;;8.30;100.00;102121.25;6248613;28;20378;-76
2024/03/17 09:42:32;;;;;;;7.28;1.67;;;;;;;8.29;100.00;102116.06;6239797;28;20045;-76
2024/03/17 09:45:34;;;;;;;9.80;1.35;;;;;;;8.34;100.00;102116.81;6243833;28;20037;-76
2024/03/17 09:48:36;;;;;;;7.57;1.80;;;;;;;8.60;100.00;102121.53;6248449;28;20060;-76
2024/03/17 09:51:40;;;;;;;3.95;0.95;;;;;;;8.66;100.00;102125.75;6248522;28;20050;-77
2024/03/17 09:54:41;;;;;;;6.35;2.40;;;;;;;8.81;100.00;102112.28;6240739;28;20037;-76
2024/03/17 09:57:46;;;;;;;8.13;1.38;;;;;;;8.85;100.00;102106.91;6249684;28;20049;-77
2024/03/17 10:00:48;;;;;;;11.18;1.95;;;;;;;8.92;100.00;102110.25;6245977;28;20049;-76
2024/03/17 10:03:54;;;;;;;5.05;1.42;;;;;;;8.96;100.00;102101.44;6237679;28;20049;-75
2024/03/17 10:06:56;;;;;;;3.72;1.05;;;;;;;8.85;100.00;102099.06;6235545;28;20052;-76
2024/03/17 10:10:13;;;;;;;7.50;1.45;;;;;;;8.76;100.00;102093.19;6232506;28;20698;-76
2024/03/17 10:13:16;;;;;;;4.97;1.60;;;;;;;8.63;100.00;102093.50;6235394;28;20064;-76
2024/03/17 10:16:24;;;;;;;6.45;1.48;;;;;;;8.63;100.00;102101.34;6238051;28;20049;-77
2024/03/17 10:19:27;;;;;;;9.13;1.60;;;;;;;8.62;100.00;102093.50;6236050;28;20179;-76
2024/03/17 10:22:28;;;;;;;5.60;1.25;;;;;;;8.86;100.00;102099.94;6233890;28;20151;-77
2024/03/17 10:25:31;;;;;;;7.93;2.05;;;;;;;8.62;100.00;102094.38;6235526;28;20342;-77
2024/03/17 10:28:34;;;;;;;10.85;1.65;;;;;;;8.70;100.00;102099.44;6232075;28;20053;-77
2024/03/17 10:31:40;;;;;;;11.50;2.10;;;;;;;8.81;100.00;102109.66;6244023;28;20060;-77
2024/03/17 10:34:41;;;;;;;12.07;2.15;;;;;;;9.01;100.00;102111.81;6241613;28;20123;-76
2024/03/17 10:37:54;;;;;;;7.60;1.55;;;;;;;8.95;100.00;102110.19;6237724;28;20449;-77
2024/03/17 10:40:56;;;;;;;3.85;1.30;;;;;;;8.86;100.00;102102.56;6239934;28;20057;-77
2024/03/17 10:43:59;;;;;;;6.25;1.77;;;;;;;8.94;100.00;102099.72;6234349;28;20346;-77
2024/03/17 10:47:01;;;;;;;7.82;1.85;;;;;;;9.08;100.00;102098.50;6241050;28;20335;-77
2024/03/17 10:50:07;;;;;;;7.53;2.15;;;;;;;9.32;100.00;102104.00;6237065;28;20059;-77
2024/03/17 10:53:09;;;;;;;6.22;1.65;;;;;;;9.46;100.00;102099.25;6249993;28;20052;-77
2024/03/17 10:56:15;;;;;;;5.03;1.90;;;;;;;9.47;100.00;102087.84;6244523;28;20185;-77
2024/03/17 10:59:22;;;;;;;11.15;2.67;;;;;;;9.68;100.00;102091.66;6236020;28;20049;-77
2024/03/17 11:02:26;;;;;;;7.55;2.28;;;;;;;9.77;100.00;102087.91;6242884;28;20176;-78
2024/03/17 11:05:30;;;;;;;6.10;2.08;;;;;;;9.77;100.00;102078.28;6263191;23;20064;-74
2024/03/17 11:08:33;;;;;;;4.13;1.98;;;;;;;10.01;100.00;102081.09;6264108;28;20049;-74
2024/03/17 11:11:39;;;;;;;9.32;3.08;;;;;;;10.29;100.00;102073.25;6262365;28;20176;-73
2024/03/17 11:14:42;;;;;;;7.07;2.17;;;;;;;10.47;100.00;102074.47;6266592;28;20077;-73
2024/03/17 11:17:44;;;;;;;11.65;3.72;;;;;;;10.61;100.00;102078.34;6247429;28;20041;-75
2024/03/17 11:20:58;;;;;;;11.85;2.38;;;;;;;10.68;100.00;102078.19;6249438;28;20059;-75
2024/03/17 11:24:01;;;;;;;12.65;2.42;;;;;;;10.49;100.00;102062.13;6250034;28;20183;-74
2024/03/17 11:27:41;;;;;;;12.30;2.55;;;;;;;10.16;100.00;102068.34;6250085;28;20060;-74
2024/03/17 11:30:54;;;;;;;9.20;2.50;;;;;;;9.86;100.00;102074.53;6249540;28;20052;-74
2024/03/17 11:34:00;;;;;;;6.88;2.20;;;;;;;9.98;100.00;102068.03;6250202;28;20056;-74
2024/03/17 11:37:05;;;;;;;9.52;3.67;;;;;;;10.26;100.00;102070.72;6244108;28;20052;-74
2024/03/17 11:40:23;;;;;;;12.63;2.40;;;;;;;10.74;100.00;102051.69;6249551;28;20046;-73
2024/03/17 11:43:24;;;;;;;4.10;2.23;;;;;;;11.12;100.00;102050.38;6249896;28;20049;-73
2024/03/17 11:46:27;;;;;;;5.55;1.85;;;;;;;11.30;91.90;102048.88;6247775;28;20049;-75
2024/03/17 11:49:30;;;;;;;10.35;2.00;;;;;;;11.18;90.48;102048.41;6249177;28;20346;-75
2024/03/17 11:52:32;;;;;;;4.53;1.55;;;;;;;11.14;91.65;102051.19;6249849;28;20076;-75
2024/03/17 11:55:33;;;;;;;5.43;1.92;;;;;;;11.21;91.76;102046.56;6247622;28;20353;-75
2024/03/17 11:58:36;;;;;;;7.72;2.00;;;;;;;11.56;95.82;102040.03;6249601;28;20049;-75
2024/03/17 12:01:40;;;;;;;3.20;2.00;;;;;;;11.67;86.98;102037.84;6249162;28;20049;-75
2024/03/17 12:04:40;;;;;;;5.03;1.77;;;;;;;11.90;93.18;102034.41;6249758;28;20053;-75
2024/03/17 12:07:43;;;;;;;9.38;1.92;;;;;;;11.76;86.44;102032.25;6253647;28;20069;-75
2024/03/17 12:10:48;;;;;;;5.45;1.52;;;;;;;11.77;88.53;102027.88;6253325;28;20045;-76
2024/03/17 12:13:49;;;;;;;6.25;1.52;;;;;;;12.15;84.13;102024.63;6253634;28;20057;-75
2024/03/17 12:16:52;;;;;;;3.65;1.67;;;;;;;12.39;85.38;102021.94;6253226;28;20354;-76
2024/03/17 12:19:55;;;;;;;4.05;2.13;;;;;;;12.37;84.35;102029.91;6253422;28;20187;-75
2024/03/17 12:22:57;;;;;;;5.47;1.67;;;;;;;12.52;81.49;102025.78;6253576;28;20053;-76
2024/03/17 12:25:58;;;;;;;5.03;2.03;;;;;;;12.67;84.42;102022.53;6253113;28;20045;-75
2024/03/17 12:28:59;;;;;;;5.55;2.42;;;;;;;12.58;78.65;102016.75;6253491;28;20056;-76
2024/03/17 12:32:02;;;;;;;8.40;2.20;;;;;;;12.61;82.20;102016.63;6253217;28;20053;-75
2024/03/17 12:35:14;;;;;;;10.07;2.80;;;;;;;12.72;79.89;102011.78;6253042;28;20339;-75
2024/03/17 12:38:22;;;;;;;6.90;2.15;;;;;;;13.08;81.73;102005.84;6253461;28;20056;-75
2024/03/17 12:41:23;;;;;;;9.25;2.35;;;;;;;13.38;80.86;102012.44;6252767;28;20053;-76
2024/03/17 12:44:24;;;;;;;6.25;2.03;;;;;;;13.54;80.96;102015.25;6252605;28;20056;-75
2024/03/17 12:47:28;;;;;;;8.07;2.60;;;;;;;13.35;78.90;102011.72;6252463;28;20057;-75
2024/03/17 12:50:29;;;;;;;9.85;2.28;;;;;;;13.45;76.09;102010.41;6244072;28;20049;-76
2024/03/17 12:53:30;;;;;;;12.63;2.70;;;;;;;13.23;79.08;102001.72;6252897;28;20048;-76
2024/03/17 13:03:24;;;;;;;3.55;2.40;;;;;;;13.37;79.66;102004.59;6252937;28;20061;-75
2024/03/17 13:06:26;;;;;;;7.72;2.55;;;;;;;13.63;78.53;102006.06;6252242;28;20054;-75
2024/03/17 13:09:29;;;;;;;8.57;2.20;;;;;;;13.94;70.21;101997.53;6252380;28;20365;-75
2024/03/17 13:12:30;;;;;;;5.15;2.13;;;;;;;14.19;73.22;102006.03;6252599;28;20128;-75
2024/03/17 13:15:32;;;;;;;9.18;2.78;;;;;;;14.01;68.75;101998.13;6251917;28;20370;-73
2024/03/17 13:18:35;;;;;;;6.43;2.30;;;;;;;14.31;69.71;101993.16;6252226;28;20056;-74
2024/03/17 13:21:37;;;;;;;6.40;2.72;;;;;;;14.41;67.16;101987.31;6251894;28;20056;-73
2024/03/17 13:24:38;;;;;;;6.88;2.45;;;;;;;14.48;71.63;101979.97;6251952;28;20137;-73
2024/03/17 13:27:39;;;;;;;9.00;2.83;;;;;;;14.29;69.33;101984.41;6252085;28;20462;-73
2024/03/17 13:30:41;;;;;;;10.13;2.40;;;;;;;14.48;67.55;101977.31;6251715;28;20049;-74
2024/03/17 13:33:44;;;;;;;7.97;2.10;;;;;;;14.29;64.25;101984.41;6252051;28;20107;-74
2024/03/17 13:36:46;;;;;;;8.90;2.08;;;;;;;13.81;61.16;101965.56;6251845;28;20049;-74
2024/03/17 13:39:47;;;;;;;5.40;2.13;;;;;;;13.56;66.30;101975.56;6251654;28;20060;-74
2024/03/17 13:42:49;;;;;;;5.68;2.03;;;;;;;13.59;68.39;101963.09;6252039;28;20057;-74
2024/03/17 13:45:51;;;;;;;6.75;1.73;;;;;;;13.67;70.37;101974.16;6251337;28;20050;-73
2024/03/17 13:48:54;;;;;;;4.43;2.05;;;;;;;13.86;70.47;101973.28;6251971;28;20057;-74
2024/03/17 13:51:55;;;;;;;8.68;2.33;;;;;;;14.05;67.74;101960.91;6251206;28;20050;-73
2024/03/17 13:54:57;;;;;;;8.75;2.15;;;;;;;14.37;63.63;101950.53;6251259;28;20049;-74
2024/03/17 13:57:59;;;;;;;4.18;2.15;;;;;;;14.03;66.88;101941.59;6251520;28;20056;-74
2024/03/17 14:01:01;;;;;;;9.45;2.53;;;;;;;13.82;70.32;101942.66;6250197;28;20124;-73
2024/03/17 14:04:03;;;;;;;11.52;2.38;;;;;;;13.84;68.21;101943.41;6251469;28;20104;-73
2024/03/17 14:07:05;;;;;;;9.30;3.08;;;;;;;13.90;68.00;101948.44;6250207;28;20049;-74
2024/03/17 14:10:08;;;;;;;3.85;1.92;;;;;;;14.00;65.89;101939.13;6250326;28;20358;-74
2024/03/17 14:13:09;;;;;;;7.28;2.10;;;;;;;14.36;67.55;101933.81;6250057;28;20079;-74